createdAt,value
2019-02-27T00:01:49.928Z,12.35
2019-02-27T00:04:21.683Z,12.20
2019-02-27T00:06:52.817Z,12.65
2019-02-27T00:09:24.062Z,10.28
2019-02-27T00:11:55.318Z,16.45
2019-02-27T00:14:28.813Z,15.37
2019-02-27T00:16:59.959Z,8.48
2019-02-27T00:19:32.308Z,9.75
2019-02-27T00:22:03.887Z,15.03
2019-02-27T00:24:35.392Z,12.28
2019-02-27T00:27:06.769Z,16.17
2019-02-27T00:29:38.338Z,11.20
2019-02-27T00:32:09.698Z,12.90
2019-02-27T00:34:41.365Z,12.13
2019-02-27T00:37:12.636Z,12.90
2019-02-27T00:39:44.258Z,13.45
2019-02-27T00:42:19.478Z,12.63
2019-02-27T00:44:49.058Z,12.23
2019-02-27T00:47:20.775Z,12.40
2019-02-27T00:49:52.103Z,14.95
2019-02-27T00:52:23.350Z,10.60
2019-02-27T00:54:55.063Z,12.60
2019-02-27T00:57:26.519Z,16.05
2019-02-27T00:59:58.071Z,10.98
2019-02-27T01:02:29.288Z,11.33
2019-02-27T01:05:00.811Z,11.93
2019-02-27T01:07:32.619Z,14.75
2019-02-27T01:10:04.490Z,10.40
2019-02-27T01:12:35.940Z,13.88
2019-02-27T01:15:10.625Z,14.20
2019-02-27T01:17:40.773Z,10.70
2019-02-27T01:20:12.719Z,10.08
2019-02-27T01:22:44.638Z,10.68
2019-02-27T01:25:16.862Z,13.38
2019-02-27T01:27:48.118Z,8.98
2019-02-27T01:30:19.400Z,14.68
2019-02-27T01:32:50.698Z,12.80
2019-02-27T01:35:22.221Z,7.67
2019-02-27T01:37:55.130Z,12.90
2019-02-27T01:40:26.618Z,11.30
2019-02-27T01:42:57.949Z,9.67
2019-02-27T01:45:29.444Z,16.50
2019-02-27T01:48:00.773Z,11.53
2019-02-27T01:50:33.968Z,12.87
2019-02-27T01:53:07.342Z,10.45
2019-02-27T01:55:38.955Z,12.50
2019-02-27T01:58:10.371Z,12.13
2019-02-27T02:00:42.010Z,10.35
2019-02-27T02:03:14.287Z,12.55
2019-02-27T02:05:46.300Z,13.38
2019-02-27T02:08:18.078Z,12.07
2019-02-27T02:10:49.478Z,14.03
2019-02-27T02:13:35.752Z,22.27
2019-02-27T02:16:34.952Z,13.53
2019-02-27T02:19:39.423Z,11.12
2019-02-27T02:22:54.419Z,14.00
2019-02-27T02:26:06.031Z,13.78
2019-02-27T02:29:14.009Z,10.93
2019-02-27T02:32:10.220Z,13.78
2019-02-27T02:35:33.701Z,12.60
2019-02-27T02:38:30.428Z,12.82
2019-02-27T02:41:51.352Z,11.15
2019-02-27T02:45:02.672Z,12.13
2019-02-27T02:48:03.126Z,13.03
2019-02-27T02:51:02.745Z,12.07
2019-02-27T02:54:04.310Z,11.43
2019-02-27T02:57:17.234Z,11.35
2019-02-27T03:00:06.974Z,10.88
2019-02-27T03:03:17.537Z,14.50
2019-02-27T03:06:36.134Z,16.35
2019-02-27T03:09:48.261Z,14.60
2019-02-27T03:13:05.804Z,13.27
2019-02-27T03:15:52.009Z,14.15
2019-02-27T03:19:24.948Z,13.28
2019-02-27T03:22:40.478Z,11.35
2019-02-27T03:25:26.629Z,13.10
2019-02-27T03:28:33.370Z,10.18
2019-02-27T03:31:26.256Z,13.68
2019-02-27T03:34:27.332Z,10.35
2019-02-27T03:37:39.180Z,12.85
2019-02-27T03:40:45.040Z,12.82
2019-02-27T03:43:51.272Z,11.60
2019-02-27T03:46:49.481Z,10.80
2019-02-27T03:49:39.688Z,14.65
2019-02-27T03:52:37.371Z,15.28
2019-02-27T03:55:46.801Z,16.17
2019-02-27T03:59:06.039Z,14.47
2019-02-27T04:02:05.779Z,14.00
2019-02-27T04:04:49.290Z,21.48
2019-02-27T04:07:46.487Z,18.70
2019-02-27T04:10:17.760Z,16.55
2019-02-27T04:12:51.621Z,14.65
2019-02-27T04:15:21.662Z,11.35
2019-02-27T04:17:52.225Z,11.97
2019-02-27T04:20:23.462Z,13.35
2019-02-27T04:22:54.942Z,12.05
2019-02-27T04:25:31.078Z,12.18
2019-02-27T04:27:58.974Z,13.65
2019-02-27T04:30:30.120Z,16.17
2019-02-27T04:33:01.489Z,12.50
2019-02-27T04:35:34.272Z,13.60
2019-02-27T04:38:06.750Z,16.10
2019-02-27T04:40:37.838Z,21.37
2019-02-27T04:43:08.928Z,16.30
2019-02-27T04:45:40.098Z,18.02
2019-02-27T04:48:11.310Z,11.55
2019-02-27T04:50:44.137Z,11.15
2019-02-27T04:53:15.741Z,11.10
2019-02-27T04:55:47.974Z,11.83
2019-02-27T04:58:19.768Z,15.32
2019-02-27T05:00:50.800Z,14.53
2019-02-27T05:03:21.999Z,18.82
2019-02-27T05:05:53.410Z,16.82
2019-02-27T05:08:27.164Z,18.02
2019-02-27T05:10:58.400Z,14.07
2019-02-27T05:13:29.619Z,16.15
2019-02-27T05:16:00.800Z,12.60
2019-02-27T05:18:31.969Z,14.65
2019-02-27T05:21:03.117Z,10.28
2019-02-27T05:23:34.308Z,13.93
2019-02-27T05:26:05.791Z,12.05
2019-02-27T05:28:38.138Z,17.00
2019-02-27T05:31:10.608Z,17.70
2019-02-27T05:33:41.728Z,17.02
2019-02-27T05:36:12.958Z,11.68
2019-02-27T05:41:15.318Z,17.12
2019-02-27T05:43:48.558Z,12.18
2019-02-27T05:46:19.393Z,13.58
2019-02-27T05:48:50.966Z,15.13
2019-02-27T05:51:23.540Z,17.73
2019-02-27T05:53:56.106Z,13.03
2019-02-27T05:56:27.608Z,15.80
2019-02-27T05:58:58.820Z,12.45
2019-02-27T06:01:30.209Z,14.53
2019-02-27T06:04:01.528Z,11.30
2019-02-27T06:06:32.952Z,14.28
2019-02-27T06:09:04.300Z,16.10
2019-02-27T06:11:36.131Z,14.70
2019-02-27T06:14:07.332Z,12.00
2019-02-27T06:16:40.920Z,15.13
2019-02-27T06:19:12.219Z,17.20
2019-02-27T06:21:43.408Z,13.23
2019-02-27T06:24:15.440Z,14.83
2019-02-27T06:26:46.720Z,16.27
2019-02-27T06:29:17.993Z,16.60
2019-02-27T06:31:49.227Z,16.07
2019-02-27T06:34:22.305Z,18.87
2019-02-27T06:36:53.349Z,14.93
2019-02-27T06:39:24.600Z,15.20
2019-02-27T06:41:55.850Z,17.37
2019-02-27T06:44:27.350Z,17.50
2019-02-27T06:46:58.622Z,21.60
2019-02-27T06:49:29.610Z,16.97
2019-02-27T06:52:00.881Z,20.62
2019-02-27T06:54:32.130Z,13.13
2019-02-27T06:57:07.496Z,14.97
2019-02-27T06:59:36.342Z,19.35
2019-02-27T07:02:07.650Z,11.43
2019-02-27T07:04:39.648Z,17.03
2019-02-27T07:07:11.610Z,15.50
2019-02-27T07:09:43.249Z,15.85
2019-02-27T07:12:16.110Z,14.30
2019-02-27T07:14:47.191Z,11.05
2019-02-27T07:17:19.020Z,18.00
2019-02-27T07:19:50.430Z,16.82
2019-02-27T07:22:21.840Z,16.37
2019-02-27T07:24:53.040Z,20.00
2019-02-27T07:27:24.668Z,17.13
2019-02-27T07:29:56.220Z,20.30
2019-02-27T07:32:31.370Z,19.27
2019-02-27T07:35:00.311Z,13.00
2019-02-27T07:37:31.600Z,18.05
2019-02-27T07:40:08.015Z,15.30
2019-02-27T07:42:36.357Z,14.95
2019-02-27T07:45:10.727Z,15.72
2019-02-27T07:47:41.633Z,18.00
2019-02-27T07:50:14.530Z,17.50
2019-02-27T07:52:45.907Z,15.58
2019-02-27T07:55:21.866Z,18.60
2019-02-27T07:58:02.660Z,18.75
2019-02-27T08:00:34.060Z,16.52
2019-02-27T08:03:09.071Z,17.67
2019-02-27T08:05:38.351Z,17.52
2019-02-27T08:08:09.850Z,25.68
2019-02-27T08:10:41.500Z,23.07
2019-02-27T08:13:12.728Z,10.75
2019-02-27T08:15:44.080Z,12.40
2019-02-27T08:18:15.450Z,14.53
2019-02-27T08:20:48.106Z,16.93
2019-02-27T08:23:19.431Z,16.73
2019-02-27T08:25:51.090Z,13.40
2019-02-27T08:28:22.330Z,15.15
2019-02-27T08:30:53.712Z,13.80
2019-02-27T08:33:24.890Z,13.10
2019-02-27T08:35:57.270Z,12.47
2019-02-27T08:38:28.391Z,11.35
2019-02-27T08:40:59.811Z,11.88
2019-02-27T08:43:31.722Z,14.07
2019-02-27T08:46:03.169Z,18.35
2019-02-27T08:48:34.421Z,14.03
2019-02-27T08:51:08.622Z,12.98
2019-02-27T08:53:38.610Z,14.85
2019-02-27T08:56:12.185Z,12.70
2019-02-27T08:58:42.730Z,16.77
2019-02-27T09:01:14.190Z,13.08
2019-02-27T09:03:45.440Z,16.50
2019-02-27T09:06:18.627Z,12.60
2019-02-27T09:08:49.710Z,11.33
2019-02-27T09:11:20.871Z,12.93
2019-02-27T09:13:52.130Z,9.78
2019-02-27T09:16:26.036Z,12.20
2019-02-27T09:18:56.140Z,18.87
2019-02-27T09:21:28.538Z,18.35
2019-02-27T09:24:00.430Z,13.35
2019-02-27T09:26:36.057Z,12.90
2019-02-27T09:29:05.430Z,14.65
2019-02-27T09:31:37.766Z,16.20
2019-02-27T09:34:09.922Z,14.25
2019-02-27T09:36:43.264Z,17.73
2019-02-27T09:39:14.140Z,17.62
2019-02-27T09:41:46.926Z,14.93
2019-02-27T09:44:18.471Z,17.73
2019-02-27T09:46:52.365Z,13.03
2019-02-27T09:49:23.322Z,15.18
2019-02-27T09:51:56.300Z,17.07
2019-02-27T09:54:27.522Z,12.28
2019-02-27T09:57:02.096Z,13.68
2019-02-27T09:59:32.025Z,13.48
2019-02-27T10:02:06.331Z,10.07
2019-02-27T10:04:37.330Z,13.72
2019-02-27T10:09:40.389Z,9.78
2019-02-27T10:12:11.760Z,12.23
2019-02-27T10:14:43.190Z,12.60
2019-02-27T10:17:14.460Z,10.67
2019-02-27T10:19:45.610Z,13.75
2019-02-27T10:22:17.852Z,13.95
2019-02-27T10:24:49.705Z,9.78
2019-02-27T10:27:20.953Z,8.08
2019-02-27T10:29:52.310Z,7.75
2019-02-27T10:32:23.450Z,11.13
2019-02-27T10:34:54.700Z,9.55
2019-02-27T10:37:26.035Z,8.10
2019-02-27T10:39:57.350Z,8.70
2019-02-27T10:42:28.520Z,10.20
2019-02-27T10:44:59.920Z,11.38
2019-02-27T10:47:33.659Z,8.63
2019-02-27T10:50:04.190Z,11.45
2019-02-27T10:52:35.450Z,10.80
2019-02-27T10:55:07.280Z,12.80
2019-02-27T10:57:38.645Z,15.72
2019-02-27T11:00:19.111Z,11.40
2019-02-27T11:02:52.570Z,16.37
2019-02-27T11:05:23.850Z,10.15
2019-02-27T11:07:55.276Z,10.65
2019-02-27T11:10:26.752Z,10.63
2019-02-27T11:12:58.183Z,10.68
2019-02-27T11:15:29.590Z,13.67
2019-02-27T11:18:04.415Z,12.00
2019-02-27T11:20:33.822Z,11.78
2019-02-27T11:23:07.076Z,12.00
2019-02-27T11:25:38.620Z,10.43
2019-02-27T11:28:09.991Z,12.93
2019-02-27T11:30:41.203Z,11.43
2019-02-27T11:33:24.721Z,9.30
2019-02-27T11:35:45.967Z,10.40
2019-02-27T11:38:17.310Z,9.60
2019-02-27T11:40:48.490Z,10.23
2019-02-27T11:43:19.890Z,10.30
2019-02-27T11:45:50.978Z,10.65
2019-02-27T11:48:22.865Z,9.48
2019-02-27T11:50:54.643Z,12.55
2019-02-27T11:53:25.970Z,12.63
2019-02-27T11:55:57.332Z,11.47
2019-02-27T11:58:28.790Z,8.53
2019-02-27T12:01:00.071Z,9.00
2019-02-27T12:03:31.399Z,9.98
2019-02-27T12:06:05.276Z,9.63
2019-02-27T12:08:35.620Z,7.83
2019-02-27T12:11:06.991Z,10.38
2019-02-27T12:13:38.240Z,8.63
2019-02-27T12:16:10.708Z,7.80
2019-02-27T12:18:42.172Z,8.65
2019-02-27T12:21:13.451Z,9.80
2019-02-27T12:23:44.903Z,10.72
2019-02-27T12:26:16.090Z,7.57
2019-02-27T12:28:47.604Z,9.65
2019-02-27T12:31:18.911Z,10.60
2019-02-27T12:33:50.190Z,15.20
2019-02-27T12:36:21.400Z,10.38
2019-02-27T12:38:52.759Z,10.60
2019-02-27T12:41:23.950Z,7.70
2019-02-27T12:43:55.185Z,8.85
2019-02-27T12:46:26.380Z,7.30
2019-02-27T12:48:57.600Z,10.70
2019-02-27T12:51:28.800Z,10.65
2019-02-27T12:54:00.070Z,13.55
2019-02-27T12:56:31.351Z,9.75
2019-02-27T12:59:02.618Z,12.10
2019-02-27T13:01:33.890Z,10.08
2019-02-27T13:04:05.110Z,15.32
2019-02-27T13:06:37.396Z,11.90
2019-02-27T13:11:41.653Z,12.93
2019-02-27T13:14:12.170Z,10.28
2019-02-27T13:16:46.398Z,9.63
2019-02-27T13:19:17.182Z,10.23
2019-02-27T13:21:48.430Z,10.78
2019-02-27T13:24:19.650Z,10.50
2019-02-27T13:26:50.850Z,11.97
2019-02-27T13:29:22.761Z,15.28
2019-02-27T13:31:54.000Z,9.48
2019-02-27T13:34:25.290Z,10.45
2019-02-27T13:36:56.640Z,10.03
2019-02-27T13:39:29.090Z,8.17
2019-02-27T13:42:00.330Z,8.63
2019-02-27T13:44:34.440Z,12.95
2019-02-27T13:47:04.440Z,8.25
2019-02-27T13:49:35.769Z,10.82
2019-02-27T13:52:07.032Z,10.57
2019-02-27T13:54:38.291Z,9.78
2019-02-27T13:57:09.540Z,11.97
2019-02-27T13:59:42.232Z,13.80
2019-02-27T14:02:13.701Z,13.93
2019-02-27T14:04:44.969Z,12.35
2019-02-27T14:07:18.610Z,12.85
2019-02-27T14:09:49.330Z,10.05
2019-02-27T14:12:20.630Z,10.30
2019-02-27T14:14:53.319Z,8.93
2019-02-27T14:17:24.860Z,12.35
2019-02-27T14:19:56.080Z,10.48
2019-02-27T14:22:27.225Z,7.37
2019-02-27T14:24:59.490Z,12.00
2019-02-27T14:27:30.772Z,10.15
2019-02-27T14:30:03.762Z,14.33
2019-02-27T14:32:36.353Z,8.95
2019-02-27T14:35:07.770Z,11.25
2019-02-27T14:37:38.940Z,9.90
2019-02-27T14:40:12.520Z,10.18
2019-02-27T14:42:43.870Z,10.63
2019-02-27T14:45:17.090Z,8.58
2019-02-27T14:47:48.370Z,8.55
2019-02-27T14:50:21.620Z,12.75
2019-02-27T14:52:52.922Z,11.50
2019-02-27T14:55:24.358Z,12.95
2019-02-27T14:57:55.660Z,11.33
2019-02-27T15:00:28.881Z,11.15
2019-02-27T15:03:00.499Z,10.90
2019-02-27T15:05:32.350Z,12.30
2019-02-27T15:08:03.770Z,9.45
2019-02-27T15:10:40.237Z,9.23
2019-02-27T15:13:08.360Z,11.30
2019-02-27T15:15:43.320Z,15.53
2019-02-27T15:18:14.033Z,13.08
2019-02-27T15:20:45.750Z,11.45
2019-02-27T15:23:18.650Z,11.78
2019-02-27T15:25:50.180Z,20.60
2019-02-27T15:28:21.570Z,10.50
2019-02-27T15:30:53.020Z,13.13
2019-02-27T15:33:24.362Z,10.43
2019-02-27T15:35:56.384Z,10.93
2019-02-27T15:41:02.391Z,11.53
2019-02-27T15:43:31.720Z,11.35
2019-02-27T15:46:02.890Z,13.13
2019-02-27T15:48:34.399Z,9.63
2019-02-27T15:51:05.910Z,10.40
2019-02-27T15:53:37.179Z,10.87
2019-02-27T15:56:08.894Z,10.03
2019-02-27T15:58:42.549Z,15.43
2019-02-27T16:01:14.852Z,11.65
2019-02-27T16:03:46.719Z,12.85
2019-02-27T16:06:18.010Z,13.75
2019-02-27T16:08:49.390Z,13.48
2019-02-27T16:11:20.611Z,13.17
2019-02-27T16:13:51.891Z,12.82
2019-02-27T16:16:23.522Z,13.83
2019-02-27T16:18:54.840Z,11.63
2019-02-27T16:21:26.061Z,23.27
2019-02-27T16:23:59.371Z,19.05
2019-02-27T16:26:30.440Z,18.12
2019-02-27T16:29:01.890Z,14.70
2019-02-27T16:31:33.870Z,13.67
2019-02-27T16:34:05.260Z,13.45
2019-02-27T16:36:37.252Z,16.48
2019-02-27T16:39:08.599Z,10.53
2019-02-27T16:41:41.476Z,12.85
2019-02-27T16:44:12.581Z,11.35
2019-02-27T16:46:46.261Z,12.40
2019-02-27T16:49:17.530Z,13.43
2019-02-27T16:51:48.801Z,14.30
2019-02-27T16:54:20.021Z,17.17
2019-02-27T16:56:51.406Z,16.75
2019-02-27T16:59:22.671Z,18.40
2019-02-27T17:01:53.871Z,18.15
2019-02-27T17:04:25.000Z,19.48
2019-02-27T17:06:56.440Z,21.87
2019-02-27T17:09:28.380Z,24.87
2019-02-27T17:12:00.110Z,22.58
2019-02-27T17:14:31.470Z,24.60
2019-02-27T17:17:03.021Z,28.67
2019-02-27T17:19:36.527Z,20.30
2019-02-27T17:22:07.219Z,19.70
2019-02-27T17:24:38.497Z,18.02
2019-02-27T17:27:12.521Z,20.33
2019-02-27T17:29:42.723Z,19.20
2019-02-27T17:32:14.112Z,24.25
2019-02-27T17:34:47.685Z,27.07
2019-02-27T17:37:18.771Z,23.25
2019-02-27T17:39:50.551Z,23.12
2019-02-27T17:42:21.871Z,18.35
2019-02-27T17:44:53.121Z,21.00
2019-02-27T17:47:28.600Z,20.55
2019-02-27T17:49:58.259Z,22.07
2019-02-27T17:52:29.511Z,15.68
2019-02-27T17:55:03.568Z,17.12
2019-02-27T17:57:34.700Z,16.90
2019-02-27T18:00:07.188Z,24.18
2019-02-27T18:02:40.276Z,17.85
2019-02-27T18:05:11.667Z,16.90
2019-02-27T18:07:43.492Z,22.20
2019-02-27T18:10:15.371Z,22.10
2019-02-27T18:12:46.731Z,24.90
2019-02-27T18:15:20.324Z,20.80
2019-02-27T18:17:51.064Z,19.70
2019-02-27T18:20:25.519Z,22.03
2019-02-27T18:22:55.772Z,21.12
2019-02-27T18:25:28.451Z,26.75
2019-02-27T18:27:59.964Z,23.93
2019-02-27T18:30:31.255Z,23.27
2019-02-27T18:33:02.570Z,25.10
2019-02-27T18:35:33.910Z,19.70
2019-02-27T18:38:05.330Z,19.50
2019-02-27T18:40:36.680Z,23.15
2019-02-27T18:43:10.343Z,21.30
2019-02-27T18:45:41.560Z,17.02
2019-02-27T18:48:12.820Z,22.20
2019-02-27T18:50:44.366Z,23.18
2019-02-27T18:53:15.921Z,20.52
2019-02-27T18:55:48.641Z,21.27
2019-02-27T18:58:22.020Z,19.10
2019-02-27T19:00:54.848Z,17.45
2019-02-27T19:03:28.580Z,21.80
2019-02-27T19:06:03.584Z,21.68
2019-02-27T19:08:36.421Z,18.92
2019-02-27T19:11:07.781Z,21.23
2019-02-27T19:13:39.023Z,19.07
2019-02-27T19:16:10.847Z,19.52
2019-02-27T19:18:42.121Z,22.48
2019-02-27T19:21:13.881Z,23.33
2019-02-27T19:23:45.203Z,27.52
2019-02-27T19:26:16.720Z,26.02
2019-02-27T19:28:48.190Z,20.80
2019-02-27T19:31:19.510Z,26.55
2019-02-27T19:33:50.771Z,23.25
2019-02-27T19:36:22.011Z,33.45
2019-02-27T19:38:53.330Z,25.05
2019-02-27T19:41:24.551Z,23.93
2019-02-27T19:43:56.054Z,27.45
2019-02-27T19:46:27.540Z,27.82
2019-02-27T19:49:00.860Z,26.10
2019-02-27T19:51:31.862Z,27.73
2019-02-27T19:54:03.179Z,23.97
2019-02-27T19:56:35.497Z,26.15
2019-02-27T19:59:07.651Z,26.02
2019-02-27T20:01:46.997Z,22.70
2019-02-27T20:04:13.682Z,26.40
